Boston, Massachusetts
Traffic Map
Current Weather Conditions
Boston, Massachusetts
Scattered Clouds
Scattered Clouds
28°
Feels Like: 29°
Wind Chill: 28° Ceiling: Unl
Heat Index: 29° Visibility: 10mi
Dew Point: 20° Wind: 16mph
Humidity: 62% Direction: 180° (S)
Pressure: 29.44in Gusts: 0mph
Raw Report DataKBOS 282154Z 18014KT 10SM SCT035 28/20 A2944 RMK AO2 SLP969 T02780200
Traffic Incident Summary
Active as of:
Severity:
Category:
InformationThere was an issue retrieving the traffic information for this location. Please try a different location or try again shortly.
Advertisements
Track Severe Weather on mobile